EDW14K LSZH-LEMH
Flight info
| Callsign | EDW14K |
|---|---|
| Flight time | 1h 20m |
| Altitude | 35000 |
| Route | VEBIT T50 ROTOS Z669 ULMES DCT VADAR DCT GEVEA DCT INCUS DCT BALSI DCT RETNO DCT TUPOX DCT MTG DCT DIVKO DCT VATIR DCT PIVUS DCT BODEQ DCT VERSO DCT TOSNU L16 SARGO |
| Aircraft | A320/M-SDE3FGHIRWY/LB1 |
Departure
| Time | 2026-04-26 12:23 |
|---|---|
| Airport | Zürich Airport (LSZH) |
Arrival
| Time | 2026-04-26 13:43 |
|---|---|
| Airport | Menorca Airport (LEMH) |
| Time | Latitude | Longitude | Altitude | Speed | Heading |
|---|---|---|---|---|---|
| 2026-04-26 11:40 | 47.46173 | 8.55492 | 1424 ft | 0 kts | 187° |
| 2026-04-26 12:15 | 47.46185 | 8.55493 | 1406 ft | 4 kts | 186° |
| 2026-04-26 12:15 | 47.46211 | 8.55498 | 1405 ft | 4 kts | 186° |
| 2026-04-26 12:15 | 47.46236 | 8.55499 | 1400 ft | 4 kts | 161° |
| 2026-04-26 12:16 | 47.46255 | 8.55478 | 1403 ft | 4 kts | 108° |
| 2026-04-26 12:16 | 47.46259 | 8.55441 | 1402 ft | 2 kts | 96° |
| 2026-04-26 12:16 | 47.46260 | 8.55438 | 1401 ft | 0 kts | 96° |
| 2026-04-26 12:17 | 47.46259 | 8.55441 | 1402 ft | 2 kts | 96° |
| 2026-04-26 12:18 | 47.46251 | 8.55551 | 1402 ft | 15 kts | 96° |
| 2026-04-26 12:18 | 47.46240 | 8.55705 | 1398 ft | 15 kts | 96° |
| 2026-04-26 12:18 | 47.46228 | 8.55868 | 1398 ft | 17 kts | 96° |
| 2026-04-26 12:18 | 47.46189 | 8.56018 | 1403 ft | 15 kts | 136° |
| 2026-04-26 12:19 | 47.46117 | 8.56120 | 1402 ft | 14 kts | 136° |
| 2026-04-26 12:19 | 47.46044 | 8.56220 | 1401 ft | 15 kts | 138° |
| 2026-04-26 12:19 | 47.45972 | 8.56317 | 1408 ft | 13 kts | 137° |
| 2026-04-26 12:19 | 47.45905 | 8.56407 | 1405 ft | 13 kts | 137° |
| 2026-04-26 12:20 | 47.45834 | 8.56504 | 1403 ft | 15 kts | 137° |
| 2026-04-26 12:20 | 47.45793 | 8.56641 | 1405 ft | 16 kts | 95° |
| 2026-04-26 12:20 | 47.45781 | 8.56818 | 1400 ft | 19 kts | 96° |
| 2026-04-26 12:20 | 47.45772 | 8.56947 | 1396 ft | 0 kts | 96° |
| 2026-04-26 12:22 | 47.45772 | 8.56952 | 1396 ft | 4 kts | 96° |
| 2026-04-26 12:22 | 47.45727 | 8.57036 | 1398 ft | 15 kts | 168° |
| 2026-04-26 12:22 | 47.45667 | 8.56957 | 1398 ft | 16 kts | 269° |
| 2026-04-26 12:23 | 47.45704 | 8.56424 | 1399 ft | 91 kts | 276° |
| 2026-04-26 12:23 | 47.45793 | 8.55155 | 1400 ft | 154 kts | 276° |
| 2026-04-26 12:23 | 47.45904 | 8.53439 | 1803 ft | 169 kts | 278° |
| 2026-04-26 12:23 | 47.46023 | 8.51707 | 2584 ft | 169 kts | 279° |
| 2026-04-26 12:24 | 47.46155 | 8.49915 | 3154 ft | 185 kts | 280° |
| 2026-04-26 12:24 | 47.46169 | 8.47904 | 3479 ft | 210 kts | 255° |
| 2026-04-26 12:24 | 47.45703 | 8.46611 | 3620 ft | 225 kts | 227° |
| 2026-04-26 12:25 | 47.43147 | 8.43142 | 4401 ft | 271 kts | 228° |
| 2026-04-26 12:25 | 47.41922 | 8.40936 | 5081 ft | 282 kts | 232° |
| 2026-04-26 12:25 | 47.40772 | 8.38600 | 6139 ft | 280 kts | 234° |
| 2026-04-26 12:25 | 47.39650 | 8.36247 | 7067 ft | 280 kts | 234° |
| 2026-04-26 12:26 | 47.38570 | 8.33844 | 7907 ft | 283 kts | 243° |
| 2026-04-26 12:26 | 47.37761 | 8.31192 | 8709 ft | 286 kts | 244° |
| 2026-04-26 12:26 | 47.36874 | 8.28530 | 9548 ft | 289 kts | 243° |
| 2026-04-26 12:26 | 47.35937 | 8.25890 | 10367 ft | 292 kts | 242° |
| 2026-04-26 12:27 | 47.34950 | 8.23172 | 10727 ft | 312 kts | 242° |
| 2026-04-26 12:27 | 47.33885 | 8.20247 | 10909 ft | 335 kts | 242° |
| 2026-04-26 12:27 | 47.32752 | 8.17120 | 11086 ft | 356 kts | 242° |
| 2026-04-26 12:27 | 47.31591 | 8.13890 | 11597 ft | 365 kts | 243° |
| 2026-04-26 12:28 | 47.30402 | 8.10559 | 12277 ft | 369 kts | 243° |
| 2026-04-26 12:28 | 47.29209 | 8.07196 | 12975 ft | 372 kts | 243° |
| 2026-04-26 12:28 | 47.28008 | 8.03809 | 13693 ft | 374 kts | 243° |
| 2026-04-26 12:28 | 47.26810 | 8.00378 | 14370 ft | 376 kts | 247° |
| 2026-04-26 12:29 | 47.25802 | 7.96823 | 14972 ft | 378 kts | 249° |
| 2026-04-26 12:29 | 47.24798 | 7.93223 | 15569 ft | 381 kts | 249° |
| 2026-04-26 12:29 | 47.22771 | 7.85965 | 16846 ft | 385 kts | 249° |
| 2026-04-26 12:30 | 47.21746 | 7.82303 | 17437 ft | 388 kts | 249° |
| 2026-04-26 12:30 | 47.20710 | 7.78614 | 17982 ft | 392 kts | 249° |
| 2026-04-26 12:30 | 47.19654 | 7.74898 | 18554 ft | 395 kts | 247° |
| 2026-04-26 12:31 | 47.16636 | 7.68145 | 19547 ft | 403 kts | 233° |
| 2026-04-26 12:31 | 47.14865 | 7.64877 | 20039 ft | 405 kts | 233° |
| 2026-04-26 12:31 | 47.13130 | 7.61671 | 20525 ft | 407 kts | 233° |
| 2026-04-26 12:31 | 47.11366 | 7.58402 | 20995 ft | 410 kts | 233° |
| 2026-04-26 12:32 | 47.09589 | 7.55108 | 21433 ft | 413 kts | 233° |
| 2026-04-26 12:32 | 47.07803 | 7.51800 | 21893 ft | 414 kts | 233° |
| 2026-04-26 12:32 | 47.04195 | 7.45141 | 22735 ft | 419 kts | 233° |
| 2026-04-26 12:33 | 47.02382 | 7.41807 | 23144 ft | 421 kts | 233° |
| 2026-04-26 12:33 | 47.00548 | 7.38447 | 23547 ft | 423 kts | 232° |
| 2026-04-26 12:33 | 46.98703 | 7.35081 | 23883 ft | 426 kts | 233° |
| 2026-04-26 12:33 | 46.96834 | 7.31677 | 24203 ft | 428 kts | 233° |
| 2026-04-26 12:34 | 46.94966 | 7.28277 | 24541 ft | 429 kts | 233° |
| 2026-04-26 12:34 | 46.93090 | 7.24860 | 24825 ft | 432 kts | 232° |
| 2026-04-26 12:34 | 46.91209 | 7.21433 | 25132 ft | 433 kts | 233° |
| 2026-04-26 12:34 | 46.89318 | 7.17991 | 25467 ft | 435 kts | 233° |
| 2026-04-26 12:35 | 46.87421 | 7.14536 | 25769 ft | 436 kts | 232° |
| 2026-04-26 12:35 | 46.85517 | 7.11074 | 26070 ft | 438 kts | 232° |
| 2026-04-26 12:35 | 46.83610 | 7.07613 | 26370 ft | 439 kts | 232° |
| 2026-04-26 12:35 | 46.81684 | 7.04124 | 26650 ft | 441 kts | 232° |
| 2026-04-26 12:36 | 46.79756 | 7.00632 | 26931 ft | 442 kts | 232° |
| 2026-04-26 12:36 | 46.77822 | 6.97136 | 27201 ft | 443 kts | 232° |
| 2026-04-26 12:36 | 46.75880 | 6.93634 | 27446 ft | 444 kts | 232° |
| 2026-04-26 12:36 | 46.73931 | 6.90113 | 27663 ft | 447 kts | 232° |
| 2026-04-26 12:37 | 46.71976 | 6.86584 | 27854 ft | 449 kts | 232° |
| 2026-04-26 12:37 | 46.70007 | 6.83033 | 28111 ft | 450 kts | 232° |
| 2026-04-26 12:37 | 46.68040 | 6.79498 | 28450 ft | 449 kts | 232° |
| 2026-04-26 12:37 | 46.66102 | 6.76024 | 28794 ft | 447 kts | 232° |
| 2026-04-26 12:38 | 46.64090 | 6.72576 | 29120 ft | 447 kts | 230° |
| 2026-04-26 12:38 | 46.62002 | 6.69236 | 29458 ft | 446 kts | 228° |
| 2026-04-26 12:38 | 46.59860 | 6.65965 | 29802 ft | 445 kts | 227° |
| 2026-04-26 12:38 | 46.57709 | 6.62746 | 30151 ft | 444 kts | 227° |
| 2026-04-26 12:39 | 46.55562 | 6.59533 | 30461 ft | 443 kts | 227° |
| 2026-04-26 12:39 | 46.53433 | 6.56307 | 30763 ft | 441 kts | 227° |
| 2026-04-26 12:39 | 46.51325 | 6.53070 | 31055 ft | 440 kts | 228° |
| 2026-04-26 12:39 | 46.49233 | 6.49834 | 31343 ft | 439 kts | 228° |
| 2026-04-26 12:40 | 46.47150 | 6.46601 | 31628 ft | 438 kts | 228° |
| 2026-04-26 12:40 | 46.45069 | 6.43372 | 31896 ft | 438 kts | 229° |
| 2026-04-26 12:40 | 46.42979 | 6.40138 | 32060 ft | 440 kts | 229° |
| 2026-04-26 12:40 | 46.40880 | 6.36897 | 32282 ft | 441 kts | 228° |
| 2026-04-26 12:41 | 46.38778 | 6.33668 | 32525 ft | 441 kts | 228° |
| 2026-04-26 12:41 | 46.36675 | 6.30451 | 32831 ft | 439 kts | 228° |
| 2026-04-26 12:41 | 46.34577 | 6.27246 | 33131 ft | 438 kts | 228° |
| 2026-04-26 12:41 | 46.32486 | 6.24052 | 33414 ft | 437 kts | 228° |
| 2026-04-26 12:42 | 46.30399 | 6.20868 | 33689 ft | 436 kts | 228° |
| 2026-04-26 12:42 | 46.28252 | 6.17777 | 33969 ft | 436 kts | 221° |
| 2026-04-26 12:42 | 46.25834 | 6.15232 | 34227 ft | 437 kts | 212° |
| 2026-04-26 12:42 | 46.23098 | 6.13292 | 34451 ft | 439 kts | 202° |
| 2026-04-26 12:43 | 46.20156 | 6.12063 | 34655 ft | 442 kts | 192° |
| 2026-04-26 12:43 | 46.17119 | 6.11373 | 34875 ft | 442 kts | 191° |
| 2026-04-26 12:43 | 46.14135 | 6.10718 | 35077 ft | 442 kts | 191° |
| 2026-04-26 12:44 | 46.08023 | 6.09359 | 35164 ft | 446 kts | 191° |
| 2026-04-26 12:44 | 46.01878 | 6.07990 | 35165 ft | 447 kts | 191° |
| 2026-04-26 12:45 | 45.95749 | 6.06626 | 35165 ft | 445 kts | 191° |
| 2026-04-26 12:45 | 45.89622 | 6.05278 | 35166 ft | 445 kts | 191° |
| 2026-04-26 12:46 | 45.83505 | 6.03937 | 35165 ft | 445 kts | 191° |
| 2026-04-26 12:46 | 45.77388 | 6.02584 | 35159 ft | 444 kts | 191° |
| 2026-04-26 12:47 | 45.71277 | 6.01237 | 35159 ft | 444 kts | 191° |
| 2026-04-26 12:47 | 45.65166 | 5.99902 | 35142 ft | 444 kts | 191° |
| 2026-04-26 12:48 | 45.59060 | 5.98578 | 35135 ft | 444 kts | 191° |
| 2026-04-26 12:48 | 45.52995 | 5.97248 | 35137 ft | 444 kts | 191° |
| 2026-04-26 12:49 | 45.46905 | 5.95894 | 35138 ft | 443 kts | 192° |
| 2026-04-26 12:49 | 45.40866 | 5.94135 | 35129 ft | 442 kts | 195° |
| 2026-04-26 12:50 | 45.34877 | 5.92116 | 35138 ft | 442 kts | 195° |
| 2026-04-26 12:50 | 45.28881 | 5.90148 | 35138 ft | 443 kts | 195° |
| 2026-04-26 12:51 | 45.22856 | 5.88279 | 35132 ft | 443 kts | 194° |
| 2026-04-26 12:51 | 45.16826 | 5.86431 | 35134 ft | 443 kts | 194° |
| 2026-04-26 12:52 | 45.10804 | 5.84571 | 35134 ft | 443 kts | 194° |
| 2026-04-26 12:52 | 45.04764 | 5.82707 | 35131 ft | 443 kts | 194° |
| 2026-04-26 12:53 | 44.98744 | 5.80849 | 35124 ft | 443 kts | 194° |
| 2026-04-26 12:53 | 44.92728 | 5.78997 | 35123 ft | 442 kts | 194° |
| 2026-04-26 12:54 | 44.86714 | 5.77156 | 35125 ft | 442 kts | 194° |
| 2026-04-26 12:54 | 44.80741 | 5.75323 | 35126 ft | 441 kts | 195° |
| 2026-04-26 12:55 | 44.74763 | 5.73493 | 35134 ft | 440 kts | 195° |
| 2026-04-26 12:55 | 44.68787 | 5.71671 | 35127 ft | 439 kts | 195° |
| 2026-04-26 12:56 | 44.62800 | 5.69847 | 35112 ft | 440 kts | 194° |
| 2026-04-26 12:56 | 44.56811 | 5.68027 | 35101 ft | 440 kts | 194° |
| 2026-04-26 12:57 | 44.50815 | 5.66211 | 35095 ft | 441 kts | 194° |
| 2026-04-26 12:57 | 44.44822 | 5.64400 | 35092 ft | 441 kts | 194° |
| 2026-04-26 12:58 | 44.35932 | 5.61207 | 35096 ft | 438 kts | 204° |
| 2026-04-26 12:58 | 44.30268 | 5.58086 | 35100 ft | 438 kts | 204° |
| 2026-04-26 12:59 | 44.24595 | 5.54986 | 35103 ft | 437 kts | 204° |
| 2026-04-26 12:59 | 44.18994 | 5.51942 | 35108 ft | 437 kts | 204° |
| 2026-04-26 13:00 | 44.13329 | 5.48852 | 35112 ft | 437 kts | 204° |
| 2026-04-26 13:00 | 44.07715 | 5.45795 | 35109 ft | 436 kts | 204° |
| 2026-04-26 13:01 | 44.02058 | 5.42728 | 35105 ft | 437 kts | 204° |
| 2026-04-26 13:01 | 43.96404 | 5.39669 | 35108 ft | 437 kts | 204° |
| 2026-04-26 13:02 | 43.90741 | 5.36604 | 35106 ft | 437 kts | 204° |
| 2026-04-26 13:02 | 43.85077 | 5.33536 | 35104 ft | 437 kts | 204° |
| 2026-04-26 13:03 | 43.79406 | 5.30477 | 35101 ft | 437 kts | 204° |
| 2026-04-26 13:03 | 43.73726 | 5.27424 | 35099 ft | 437 kts | 204° |
| 2026-04-26 13:04 | 43.68057 | 5.24374 | 35089 ft | 437 kts | 204° |
| 2026-04-26 13:04 | 43.62380 | 5.21334 | 35098 ft | 437 kts | 204° |
| 2026-04-26 13:05 | 43.56733 | 5.18318 | 35126 ft | 437 kts | 204° |
| 2026-04-26 13:05 | 43.51053 | 5.15285 | 35116 ft | 437 kts | 204° |
| 2026-04-26 13:06 | 43.45379 | 5.12266 | 35123 ft | 437 kts | 204° |
| 2026-04-26 13:06 | 43.39720 | 5.09211 | 35129 ft | 436 kts | 207° |
| 2026-04-26 13:07 | 43.34585 | 5.04878 | 35128 ft | 432 kts | 217° |
| 2026-04-26 13:07 | 43.29663 | 5.00216 | 35123 ft | 433 kts | 217° |
| 2026-04-26 13:08 | 43.24701 | 4.95535 | 35128 ft | 433 kts | 217° |
| 2026-04-26 13:08 | 43.19727 | 4.90875 | 35128 ft | 433 kts | 217° |
| 2026-04-26 13:09 | 43.14746 | 4.86222 | 35139 ft | 433 kts | 217° |
| 2026-04-26 13:09 | 43.09760 | 4.81568 | 35124 ft | 434 kts | 217° |
| 2026-04-26 13:10 | 43.04732 | 4.77021 | 35128 ft | 435 kts | 211° |
| 2026-04-26 13:10 | 42.99441 | 4.73006 | 35131 ft | 435 kts | 211° |
| 2026-04-26 13:11 | 42.94131 | 4.68977 | 35132 ft | 435 kts | 211° |
| 2026-04-26 13:11 | 42.89729 | 4.65641 | 35129 ft | 436 kts | 211° |
| 2026-04-26 13:12 | 42.84417 | 4.61625 | 35132 ft | 436 kts | 211° |
| 2026-04-26 13:12 | 42.79107 | 4.57631 | 35136 ft | 436 kts | 211° |
| 2026-04-26 13:13 | 42.73793 | 4.53641 | 35136 ft | 436 kts | 211° |
| 2026-04-26 13:13 | 42.68480 | 4.49651 | 35137 ft | 436 kts | 211° |
| 2026-04-26 13:14 | 42.63169 | 4.45661 | 35139 ft | 436 kts | 211° |
| 2026-04-26 13:14 | 42.57852 | 4.41678 | 35140 ft | 436 kts | 211° |
| 2026-04-26 13:15 | 42.52525 | 4.37712 | 35131 ft | 437 kts | 211° |
| 2026-04-26 13:15 | 42.47194 | 4.33758 | 35134 ft | 437 kts | 211° |
| 2026-04-26 13:16 | 42.41891 | 4.29821 | 35139 ft | 437 kts | 211° |
| 2026-04-26 13:16 | 42.36559 | 4.25864 | 35147 ft | 437 kts | 211° |
| 2026-04-26 13:17 | 42.28548 | 4.19928 | 35141 ft | 438 kts | 211° |
| 2026-04-26 13:18 | 42.20517 | 4.14003 | 35130 ft | 439 kts | 211° |
| 2026-04-26 13:19 | 42.12469 | 4.08089 | 35136 ft | 439 kts | 210° |
| 2026-04-26 13:19 | 42.07107 | 4.04144 | 35132 ft | 439 kts | 210° |
| 2026-04-26 13:20 | 42.01736 | 4.00206 | 35130 ft | 440 kts | 210° |
| 2026-04-26 13:20 | 41.96364 | 3.96262 | 35137 ft | 440 kts | 210° |
| 2026-04-26 13:21 | 41.90732 | 3.93036 | 35135 ft | 443 kts | 195° |
| 2026-04-26 13:21 | 41.84643 | 3.91555 | 35138 ft | 445 kts | 191° |
| 2026-04-26 13:22 | 41.78565 | 3.90163 | 35139 ft | 446 kts | 191° |
| 2026-04-26 13:22 | 41.72450 | 3.88746 | 35142 ft | 446 kts | 191° |
| 2026-04-26 13:23 | 41.66321 | 3.87331 | 35149 ft | 447 kts | 191° |
| 2026-04-26 13:23 | 41.60188 | 3.85925 | 35153 ft | 448 kts | 191° |
| 2026-04-26 13:24 | 41.54044 | 3.84521 | 35158 ft | 448 kts | 191° |
| 2026-04-26 13:24 | 41.47903 | 3.83116 | 35155 ft | 447 kts | 191° |
| 2026-04-26 13:25 | 41.41768 | 3.81712 | 35162 ft | 447 kts | 191° |
| 2026-04-26 13:25 | 41.35631 | 3.80308 | 35164 ft | 447 kts | 191° |
| 2026-04-26 13:26 | 41.29502 | 3.78906 | 35177 ft | 446 kts | 191° |
| 2026-04-26 13:26 | 41.23396 | 3.77513 | 35185 ft | 444 kts | 191° |
| 2026-04-26 13:27 | 41.17289 | 3.76310 | 34743 ft | 447 kts | 184° |
| 2026-04-26 13:27 | 41.14149 | 3.76407 | 33587 ft | 455 kts | 174° |
| 2026-04-26 13:27 | 41.11020 | 3.77201 | 32392 ft | 462 kts | 165° |
| 2026-04-26 13:27 | 41.07905 | 3.78386 | 31216 ft | 467 kts | 165° |
| 2026-04-26 13:28 | 41.04765 | 3.79552 | 30000 ft | 472 kts | 165° |
| 2026-04-26 13:28 | 41.01621 | 3.80695 | 28633 ft | 476 kts | 165° |
| 2026-04-26 13:28 | 40.98412 | 3.81845 | 27232 ft | 479 kts | 165° |
| 2026-04-26 13:28 | 40.95180 | 3.82992 | 25816 ft | 482 kts | 165° |
| 2026-04-26 13:29 | 40.91927 | 3.84148 | 24594 ft | 483 kts | 165° |
| 2026-04-26 13:29 | 40.89781 | 3.84915 | 23874 ft | 481 kts | 165° |
| 2026-04-26 13:29 | 40.85485 | 3.86461 | 22459 ft | 475 kts | 165° |
| 2026-04-26 13:29 | 40.82314 | 3.87607 | 21569 ft | 469 kts | 164° |
| 2026-04-26 13:30 | 40.79186 | 3.88737 | 20716 ft | 463 kts | 164° |
| 2026-04-26 13:30 | 40.76092 | 3.89853 | 19880 ft | 458 kts | 164° |
| 2026-04-26 13:30 | 40.73047 | 3.90946 | 19109 ft | 452 kts | 165° |
| 2026-04-26 13:30 | 40.70017 | 3.92028 | 18340 ft | 448 kts | 165° |
| 2026-04-26 13:31 | 40.67039 | 3.93090 | 17519 ft | 443 kts | 164° |
| 2026-04-26 13:31 | 40.64073 | 3.94149 | 16710 ft | 440 kts | 164° |
| 2026-04-26 13:31 | 40.61124 | 3.95204 | 15940 ft | 436 kts | 164° |
| 2026-04-26 13:31 | 40.58271 | 3.96224 | 15102 ft | 425 kts | 164° |
| 2026-04-26 13:32 | 40.55476 | 3.97223 | 14290 ft | 409 kts | 164° |
| 2026-04-26 13:32 | 40.52727 | 3.98204 | 13181 ft | 400 kts | 164° |
| 2026-04-26 13:32 | 40.50109 | 3.99139 | 12052 ft | 392 kts | 164° |
| 2026-04-26 13:32 | 40.47537 | 4.00054 | 11602 ft | 368 kts | 164° |
| 2026-04-26 13:33 | 40.45161 | 4.00898 | 11452 ft | 339 kts | 164° |
| 2026-04-26 13:33 | 40.42970 | 4.01677 | 11327 ft | 314 kts | 164° |
| 2026-04-26 13:33 | 40.40925 | 4.02404 | 10984 ft | 299 kts | 164° |
| 2026-04-26 13:33 | 40.38934 | 4.03110 | 10447 ft | 294 kts | 163° |
| 2026-04-26 13:34 | 40.36960 | 4.03810 | 10042 ft | 293 kts | 164° |
| 2026-04-26 13:34 | 40.34991 | 4.04506 | 9677 ft | 291 kts | 163° |
| 2026-04-26 13:34 | 40.33047 | 4.05193 | 9304 ft | 289 kts | 163° |
| 2026-04-26 13:34 | 40.31736 | 4.05658 | 9045 ft | 287 kts | 163° |
| 2026-04-26 13:35 | 40.29189 | 4.06560 | 8530 ft | 285 kts | 163° |
| 2026-04-26 13:35 | 40.27276 | 4.07239 | 8158 ft | 283 kts | 163° |
| 2026-04-26 13:35 | 40.25381 | 4.07913 | 7784 ft | 281 kts | 163° |
| 2026-04-26 13:35 | 40.23503 | 4.08577 | 7401 ft | 280 kts | 163° |
| 2026-04-26 13:36 | 40.21629 | 4.09238 | 7026 ft | 278 kts | 163° |
| 2026-04-26 13:36 | 40.19766 | 4.09898 | 6649 ft | 276 kts | 161° |
| 2026-04-26 13:36 | 40.18089 | 4.10955 | 6481 ft | 261 kts | 140° |
| 2026-04-26 13:36 | 40.16874 | 4.12578 | 6313 ft | 249 kts | 128° |
| 2026-04-26 13:37 | 40.15753 | 4.14325 | 5960 ft | 246 kts | 128° |
| 2026-04-26 13:37 | 40.14679 | 4.16010 | 5602 ft | 244 kts | 128° |
| 2026-04-26 13:37 | 40.13610 | 4.17685 | 5398 ft | 236 kts | 128° |
| 2026-04-26 13:37 | 40.12564 | 4.19320 | 5101 ft | 233 kts | 129° |
| 2026-04-26 13:38 | 40.11524 | 4.20940 | 4748 ft | 232 kts | 129° |
| 2026-04-26 13:38 | 40.10488 | 4.22556 | 4382 ft | 232 kts | 129° |
| 2026-04-26 13:38 | 40.09447 | 4.24158 | 4044 ft | 231 kts | 134° |
| 2026-04-26 13:38 | 40.08162 | 4.25378 | 3724 ft | 230 kts | 155° |
| 2026-04-26 13:39 | 40.06629 | 4.25906 | 3473 ft | 225 kts | 176° |
| 2026-04-26 13:39 | 40.05101 | 4.25759 | 3272 ft | 219 kts | 188° |
| 2026-04-26 13:39 | 40.03607 | 4.25446 | 3034 ft | 214 kts | 189° |
| 2026-04-26 13:39 | 40.02155 | 4.25143 | 2981 ft | 208 kts | 189° |
| 2026-04-26 13:40 | 40.00777 | 4.24857 | 2955 ft | 195 kts | 189° |
| 2026-04-26 13:40 | 39.99456 | 4.24585 | 2726 ft | 191 kts | 189° |
| 2026-04-26 13:40 | 39.98148 | 4.24315 | 2472 ft | 189 kts | 189° |
| 2026-04-26 13:40 | 39.96865 | 4.24050 | 2223 ft | 183 kts | 189° |
| 2026-04-26 13:41 | 39.95668 | 4.23803 | 2005 ft | 166 kts | 190° |
| 2026-04-26 13:41 | 39.94577 | 4.23578 | 1776 ft | 153 kts | 188° |
| 2026-04-26 13:41 | 39.93561 | 4.23369 | 1575 ft | 144 kts | 188° |
| 2026-04-26 13:41 | 39.92587 | 4.23168 | 1370 ft | 141 kts | 188° |
| 2026-04-26 13:42 | 39.91636 | 4.22963 | 1193 ft | 137 kts | 188° |
| 2026-04-26 13:42 | 39.90698 | 4.22774 | 1046 ft | 137 kts | 187° |
| 2026-04-26 13:42 | 39.89748 | 4.22587 | 847 ft | 139 kts | 186° |
| 2026-04-26 13:42 | 39.88789 | 4.22388 | 682 ft | 140 kts | 186° |
| 2026-04-26 13:43 | 39.87843 | 4.22188 | 481 ft | 139 kts | 185° |
| 2026-04-26 13:43 | 39.86892 | 4.21995 | 310 ft | 136 kts | 188° |
| 2026-04-26 13:43 | 39.86101 | 4.21833 | 300 ft | 88 kts | 189° |
| 2026-04-26 13:43 | 39.85682 | 4.21753 | 297 ft | 39 kts | 184° |
| 2026-04-26 13:44 | 39.85509 | 4.21798 | 295 ft | 19 kts | 159° |
| 2026-04-26 13:44 | 39.85397 | 4.21881 | 291 ft | 16 kts | 101° |
| 2026-04-26 13:44 | 39.85478 | 4.21943 | 293 ft | 14 kts | 8° |
| 2026-04-26 13:44 | 39.85604 | 4.21968 | 294 ft | 22 kts | 9° |
| 2026-04-26 13:45 | 39.85759 | 4.22001 | 297 ft | 26 kts | 9° |
| 2026-04-26 13:45 | 39.85955 | 4.22042 | 295 ft | 30 kts | 9° |
| 2026-04-26 13:45 | 39.86145 | 4.22081 | 297 ft | 19 kts | 9° |
| 2026-04-26 13:45 | 39.86184 | 4.22205 | 295 ft | 17 kts | 96° |
| 2026-04-26 13:46 | 39.86272 | 4.22278 | 297 ft | 18 kts | 8° |
| 2026-04-26 13:46 | 39.86392 | 4.22301 | 295 ft | 14 kts | 8° |
| 2026-04-26 13:46 | 39.86431 | 4.22326 | 297 ft | 0 kts | 78° |
| 2026-04-26 13:46 | 39.86426 | 4.22354 | 297 ft | 5 kts | 99° |
| 2026-04-26 13:47 | 39.86422 | 4.22394 | 297 ft | 1 kts | 98° |
| 2026-04-26 13:47 | 39.86422 | 4.22396 | 297 ft | 0 kts | 98° |